• Join FlightAware (Why Join?)
  • Login
  • US Flag 
01:16AM EDT


 

Airport Tracker/Info


-or-


 

Live Flight TrackerFlight Track Log ✈ EJA749 ✈ 15-Nov-2013 ✈ KTEB - KBCT

Flight Track Log - Related Links

Times and Time Zones

All times are in EST time to prevent confusion due to time zone crossing. See the EJA749 flight status page for this flight to view local times or setup timezone preferences in your user account.

Time Position Orientation Groundspeed Altitude Reporting Facility
EST Latitude Longitude Course Direction KTS MPH feet Rate Location/Type
09:43AM 40.8167 -74.1333 246° West 188 216 1,500  Level New York TRACON
09:44AM 40.8000 -74.1833 246° West 179 206 2,200 1,080 Climbing New York TRACON
09:45AM 40.7667 -74.2333 229° Southwest 222 255 3,700 1,560 Climbing New York TRACON
09:46AM 40.6833 -74.2500 189° South 254 292 5,400 1,140 Climbing New York TRACON
09:47AM 40.6167 -74.2667 191° South 257 296 6,000 300 Climbing New York TRACON
09:48AM 40.5500 -74.2667 180° South 259 298 6,000  Level New York TRACON
09:49AM 40.4833 -74.2500 169° South 262 302 6,000  Level New York TRACON
09:51AM 40.3642 -74.1894 159° South 262 302 6,000 600 Level New York Center
09:52AM 40.2956 -74.1889 180° South 256 295 7,800 2,040 Climbing New York Center
09:53AM 40.2219 -74.2069 191° South 263 303 10,100 2,460 Climbing New York Center
09:54AM 40.0644 -74.2550 193° South 330 380 14,900 2,700 Climbing Washington Center
09:55AM 40.0217 -74.3642 243° Southwest 318 366 17,900 3,120 Climbing Washington Center
09:57AM 39.9519 -74.4494 223° Southwest 331 381 21,200 2,820 Climbing Washington Center
09:58AM 39.8714 -74.5292 217° Southwest 352 405 23,700 2,280 Climbing Washington Center
09:59AM 39.7844 -74.6167 218° Southwest 375 432 25,800 2,040 Climbing Washington Center
10:00AM 39.6978 -74.7069 219° Southwest 398 458 27,800 1,620 Climbing Washington Center
10:00AM 39.6067 -74.8025 219° Southwest 409 471 29,100 1,380 Climbing Washington Center
10:01AM 39.5053 -74.9058 218° Southwest 422 486 30,600 1,440 Climbing Washington Center
10:03AM 39.4142 -74.9978 218° Southwest 422 486 32,100 1,440 Climbing Washington Center
10:04AM 39.3250 -75.0897 219° Southwest 417 480 33,600 1,500 Climbing Washington Center
10:04AM 39.2208 -75.1494 204° Southwest 417 480 35,100 1,200 Climbing Washington Center
10:06AM 39.1086 -75.1931 197° South 415 478 36,000 420 Climbing Washington Center
10:07AM 38.9961 -75.2417 199° South 425 489 36,000  Level Washington Center
10:07AM 38.8836 -75.2878 198° South 425 489 36,000  Level Washington Center
10:09AM 38.7733 -75.3386 200° South 425 489 36,000  Level Washington Center
10:10AM 38.6608 -75.3764 195° South 425 489 36,000  Level Washington Center
10:11AM 38.5503 -75.4272 200° South 425 489 36,000  Level Washington Center
10:12AM 38.4400 -75.4750 199° South 425 489 36,000  Level Washington Center
10:13AM 38.3294 -75.5228 199° South 425 489 36,000 360 Level Washington Center
10:13AM 38.2314 -75.5733 202° Southwest 425 489 36,800 900 Climbing Washington Center
10:15AM 38.1272 -75.6286 203° Southwest 420 483 37,800 540 Climbing Washington Center
10:16AM 38.0167 -75.6681 196° South 414 476 38,000 60 Climbing Washington Center
10:17AM 37.8894 -75.6997 191° South 420 483 38,000  Level Washington Center
10:18AM 37.7747 -75.7417 196° South 427 491 38,000  Level Washington Center
10:18AM 37.6703 -75.8017 204° Southwest 433 498 38,000  Level Washington Center
10:19AM 37.5764 -75.8564 205° Southwest 421 484 38,000  Level Washington Center
10:21AM 37.4700 -75.9111 202° Southwest 416 479 38,000  Level Washington Center
10:22AM 37.3653 -75.9708 204° Southwest 416 479 38,000  Level Washington Center
10:23AM 37.2631 -76.0278 204° Southwest 416 479 38,000  Level Washington Center
10:23AM 37.1586 -76.0844 203° Southwest 416 479 38,000  Level Washington Center
10:25AM 37.0539 -76.1436 204° Southwest 416 479 38,000  Level Washington Center
10:26AM 36.9453 -76.2000 203° Southwest 421 484 38,000  Level Washington Center
10:27AM 36.8406 -76.2536 202° Southwest 421 484 38,000  Level Washington Center
10:28AM 36.7358 -76.3125 204° Southwest 416 479 38,000  Level Washington Center
10:28AM 36.6333 -76.3711 205° Southwest 416 479 38,000  Level Washington Center
10:29AM 36.5308 -76.4269 204° Southwest 411 473 38,000  Level Washington Center
10:30AM 36.4281 -76.4775 202° Southwest 411 473 38,000  Level Washington Center
10:31AM 36.3233 -76.5356 204° Southwest 411 473 38,000  Level Washington Center
10:33AM 36.2186 -76.5908 203° Southwest 411 473 38,000  Level Washington Center
10:34AM 36.1117 -76.6461 203° Southwest 411 473 38,000  Level Washington Center
10:35AM 36.0092 -76.7014 204° Southwest 411 473 38,000  Level Washington Center
10:36AM 35.9064 -76.7561 203° Southwest 411 473 38,000  Level Washington Center
10:36AM 35.8014 -76.8111 203° Southwest 411 473 38,000  Level Washington Center
10:38AM 35.6986 -76.8658 203° Southwest 411 473 38,000  Level Washington Center
10:39AM 35.5875 -76.9253 204° Southwest 406 467 38,000  Level Washington Center
10:39AM 35.4844 -76.9797 203° Southwest 406 467 38,000  Level Washington Center
10:41AM 35.3794 -77.0339 203° Southwest 401 461 38,000  Level Washington Center
10:42AM 35.2725 -77.0881 202° Southwest 401 461 38,000  Level Washington Center
10:43AM 35.1675 -77.1419 203° Southwest 401 461 38,000  Level Washington Center
10:43AM 35.0644 -77.1958 203° Southwest 401 461 38,000  Level Washington Center
10:45AM 34.9636 -77.2494 204° Southwest 401 461 38,000  Level Washington Center
10:46AM 34.8586 -77.3031 203° Southwest 401 461 38,000  Level Washington Center
10:47AM 34.7575 -77.3592 205° Southwest 401 461 38,000  Level Washington Center
10:48AM 34.6525 -77.4125 203° Southwest 401 461 38,000  Level Washington Center
10:50AM 34.4344 -77.4978 198° South 411 473 38,000  Level Jacksonville Center
10:51AM 34.3211 -77.5325 194° South 417 480 38,000  Level Jacksonville Center
10:52AM 34.2061 -77.5697 195° South 417 480 38,000  Level Jacksonville Center
10:53AM 34.0928 -77.6069 195° South 422 486 38,000  Level Jacksonville Center
10:54AM 33.9794 -77.6411 194° South 422 486 38,000  Level Jacksonville Center
10:55AM 33.8725 -77.6728 194° South 422 486 38,000  Level Jacksonville Center
10:56AM 33.7592 -77.7119 196° South 417 480 38,000  Level Jacksonville Center
10:57AM 33.6481 -77.7483 195° South 409 471 38,000  Level Jacksonville Center
10:58AM 33.5267 -77.7878 195° South 409 471 38,000  Level Jacksonville Center
10:59AM 33.4153 -77.8217 194° South 409 471 38,000  Level Jacksonville Center
11:00AM 33.3042 -77.8578 195° South 409 471 38,000  Level Jacksonville Center
11:01AM 33.1928 -77.8939 195° South 409 471 38,000  Level Jacksonville Center
11:02AM 33.0794 -77.9297 195° South 414 476 38,000  Level Jacksonville Center
11:03AM 32.9681 -77.9633 194° South 414 476 38,000  Level Jacksonville Center
11:04AM 32.8525 -77.9992 195° South 414 476 38,000  Level Jacksonville Center
11:05AM 32.7392 -78.0350 195° South 419 482 38,000  Level Jacksonville Center
11:06AM 32.6258 -78.0708 195° South 419 482 38,000  Level Jacksonville Center
11:07AM 32.5122 -78.1039 194° South 419 482 38,000  Level Jacksonville Center
11:08AM 32.4008 -78.1392 195° South 419 482 38,000  Level Jacksonville Center
11:09AM 32.2833 -78.1772 195° South 424 488 38,000  Level Jacksonville Center
11:10AM 32.1697 -78.2125 195° South 430 495 38,000  Level Jacksonville Center
11:11AM 32.0667 -78.2447 195° South 430 495 38,000  Level Jacksonville Center
11:12AM 31.9511 -78.2825 196° South 430 495 38,000  Level Jacksonville Center
11:13AM 31.8356 -78.3200 195° South 430 495 38,000  Level Jacksonville Center
11:14AM 31.7219 -78.3550 195° South 430 495 38,000  Level Jacksonville Center
11:15AM 31.6064 -78.3922 195° South 430 495 38,000  Level Jacksonville Center
11:16AM 31.4908 -78.4269 194° South 430 495 38,100 300 Climbing Jacksonville Center
11:17AM 31.3692 -78.4669 196° South 435 501 38,700 420 Climbing Jacksonville Center
11:18AM 31.2514 -78.5017 194° South 435 501 39,000 120 Climbing Jacksonville Center
11:19AM 31.1336 -78.5411 196° South 440 506 39,000  Level Jacksonville Center
11:20AM 31.0056 -78.5833 196° South 440 506 39,000  Level Jacksonville Center
11:21AM 30.8817 -78.6181 194° South 454 522 39,000 120 Level Jacksonville Center
11:22AM 30.7658 -78.6547 195° South 443 510 39,300 360 Climbing Jacksonville Center
11:23AM 30.6461 -78.6939 196° South 455 524 39,800 300 Climbing Jacksonville Center
11:24AM 30.5242 -78.7331 195° South 448 516 40,000 60 Climbing Jacksonville Center
11:25AM 30.4197 -78.7750 199° South 445 512 40,000  Level Miami Center
11:26AM 30.3025 -78.8161 197° South 451 519 40,000  Level Miami Center
11:27AM 30.1831 -78.8594 197° South 451 519 40,000  Level Miami Center
11:28AM 30.0739 -78.9006 198° South 437 503 40,000  Level Miami Center
11:29AM 29.9836 -78.9394 200° South 420 483 40,000  Level Miami Center
11:30AM 29.8769 -78.9733 195° South 407 468 40,000  Level Miami Center
11:31AM 29.7681 -79.0022 193° South 391 450 40,000 -300 Level Miami Center
11:32AM 29.6653 -79.0386 197° South 401 461 39,400 -840 Descending Miami Center
11:33AM 29.5422 -79.0481 184° South 423 487 38,400 -1,380 Descending Miami Center
11:34AM 29.4314 -79.0672 189° South 414 476 36,700 -1,680 Descending Miami Center
11:35AM 29.3183 -79.0886 189° South 414 476 35,100 -900 Descending Miami Center
11:36AM 29.2033 -79.1103 189° South 420 483 35,000 -60 Descending Miami Center
11:37AM 29.0839 -79.1292 188° South 428 493 35,000  Level Miami Center
11:38AM 28.9669 -79.1528 190° South 435 501 35,000  Level Miami Center
11:39AM 28.8558 -79.1717 188° South 423 487 35,000  Level Miami Center
11:40AM 28.7428 -79.1931 189° South 418 481 35,000  Level Miami Center
11:41AM 28.6278 -79.2119 188° South 413 475 35,000 -840 Level Miami Center
11:42AM 28.5189 -79.2333 190° South 407 468 33,400 -1,920 Descending Miami Center
11:43AM 28.4017 -79.2497 187° South 414 476 31,200 -2,280 Descending Miami Center
11:44AM 28.2867 -79.2733 190° South 420 483 28,900 -2,340 Descending Miami Center
11:45AM 28.1631 -79.2964 189° South 437 503 26,600 -2,220 Descending Miami Center
11:46AM 28.0517 -79.3317 196° South 437 503 24,500 -1,920 Descending Miami Center
11:47AM 27.9547 -79.3908 208° Southwest 412 474 22,800 -1,800 Descending Miami Center
11:48AM 27.8619 -79.4450 207° Southwest 397 457 21,000 -1,800 Descending Miami Center
11:49AM 27.7669 -79.5017 208° Southwest 383 441 19,300 -1,800 Descending Miami Center
11:50AM 27.6678 -79.5603 208° Southwest 377 434 17,500 -1,620 Descending Miami Center
11:51AM 27.5875 -79.6075 208° Southwest 352 405 16,100 -1,380 Descending Miami Center
11:52AM 27.5156 -79.6550 210° Southwest 321 369 14,800 -1,320 Descending Miami Center
11:53AM 27.4500 -79.6933 207° Southwest 298 343 13,500 -1,320 Descending Miami Center
11:54AM 27.3783 -79.7358 208° Southwest 293 337 12,200 -1,380 Descending Miami Center
11:55AM 27.3000 -79.7808 207° Southwest 288 331 10,800 -1,380 Descending Miami Center
11:56AM 27.2261 -79.8256 208° Southwest 288 331 9,500 -1,260 Descending Miami Center
11:57AM 27.1564 -79.8681 208° Southwest 288 331 8,300 -1,200 Descending Miami Center
11:58AM 27.0950 -79.9039 207° Southwest 288 331 7,100 -1,260 Descending Miami Center
11:59AM 27.0275 -79.9417 207° Southwest 288 331 5,800 -1,080 Descending Miami Center
12:00PM 26.9556 -79.9842 208° Southwest 277 319 5,000 -420 Descending Miami Center
12:01PM 26.8981 -80.0314 216° Southwest 271 312 5,000  Level Miami Center
12:02PM 26.8367 -80.0764 213° Southwest 271 312 5,000  Level Miami Center
12:03PM 26.7589 -80.0906 189° South 266 306 5,000  Level Miami Center
12:05PM 26.6100 -80.1214 190° South 245 282 5,000 -360 Level Miami Center
12:06PM 26.5383 -80.1494 199° South 225 259 3,900 -960 Descending Miami Center
12:07PM 26.4872 -80.1922 217° Southwest 216 249 2,900 -960 Descending Miami Center
12:08PM 26.4383 -80.2347 218° Southwest 224 258 2,000 -480 Descending Miami Center
12:09PM 26.3906 -80.2242 169° South 180 207 2,000 -240 Level Miami Center
12:10PM 26.3514 -80.1931 145° Southeast 155 178 1,600 -480 Descending Miami Center
12:11PM 26.3439 -80.1533 102° East 143 165 1,100 -720 Descending Miami Center
12:12PM 26.3656 -80.1214 53° Northeast 135 155 200 -900 Descending Miami Center
12:14PM 26.3667 -80.1000 180° South  Level FlightAware Approximate